Time,TemperatureF,DewpointF,PressureIn,WindDirection,WindDirectionDegrees,WindSpeedMPH,WindSpeedGustMPH,Humidity,HourlyPrecipIn,Conditions,Clouds,dailyrainin,SoftwareType,DateUTC
2013-03-16 00:07:00,52.7,40.0,29.90,WSW,253,2.0,2.0,63,0.00,,,0.00,weatherlink.com 1.10,2013-03-16 04:07:00,
2013-03-16 00:22:00,54.8,41.0,29.89,WSW,238,1.0,4.0,60,0.00,,,0.00,weatherlink.com 1.10,2013-03-16 04:22:00,
2013-03-16 00:37:00,57.5,41.0,29.89,WSW,250,4.0,4.0,55,0.00,,,0.00,weatherlink.com 1.10,2013-03-16 04:37:00,
2013-03-16 00:52:00,57.9,41.0,29.88,SW,234,4.0,5.0,54,0.00,,,0.00,weatherlink.com 1.10,2013-03-16 04:52:00,
2013-03-16 01:07:00,58.4,41.0,29.87,SW,223,1.0,5.0,53,0.00,,,0.00,weatherlink.com 1.10,2013-03-16 05:07:00,
2013-03-16 01:22:00,57.6,41.0,29.86,SW,219,3.0,4.0,54,0.00,,,0.00,weatherlink.com 1.10,2013-03-16 05:22:00,
2013-03-16 01:37:00,57.9,41.0,29.86,WSW,248,2.0,5.0,54,0.00,,,0.00,weatherlink.com 1.10,2013-03-16 05:37:00,
2013-03-16 01:52:00,58.1,41.0,29.86,WSW,247,1.0,5.0,54,0.00,,,0.00,weatherlink.com 1.10,2013-03-16 05:52:00,
2013-03-16 02:07:00,57.7,41.0,29.86,WSW,251,1.0,5.0,54,0.00,,,0.00,weatherlink.com 1.10,2013-03-16 06:07:00,
2013-03-16 02:22:00,54.8,41.0,29.86,SSW,203,1.0,4.0,59,0.00,,,0.00,weatherlink.com 1.10,2013-03-16 06:22:00,
2013-03-16 02:37:00,54.8,41.0,29.86,SSW,213,4.0,5.0,60,0.00,,,0.00,weatherlink.com 1.10,2013-03-16 06:37:00,
2013-03-16 02:52:00,56.0,41.0,29.86,SW,227,2.0,5.0,58,0.00,,,0.00,weatherlink.com 1.10,2013-03-16 06:52:00,
2013-03-16 03:07:00,57.1,41.0,29.86,South,184,2.0,6.0,56,0.00,,,0.00,weatherlink.com 1.10,2013-03-16 07:07:00,
2013-03-16 03:22:00,53.6,40.0,29.85,SSE,156,1.0,4.0,61,0.00,,,0.00,weatherlink.com 1.10,2013-03-16 07:22:00,
2013-03-16 03:37:00,53.8,41.0,29.85,WSW,240,1.0,6.0,62,0.00,,,0.00,weatherlink.com 1.10,2013-03-16 07:37:00,
2013-03-16 03:52:00,57.5,42.0,29.84,WSW,248,4.0,9.0,57,0.00,,,0.00,weatherlink.com 1.10,2013-03-16 07:52:00,
2013-03-16 04:07:00,57.8,42.0,29.84,SW,215,4.0,9.0,56,0.00,,,0.00,weatherlink.com 1.10,2013-03-16 08:07:00,
2013-03-16 04:22:00,57.6,42.0,29.84,West,260,6.0,10.0,57,0.00,,,0.00,weatherlink.com 1.10,2013-03-16 08:22:00,
2013-03-16 04:37:00,57.4,42.0,29.84,SW,221,3.0,8.0,57,0.00,,,0.00,weatherlink.com 1.10,2013-03-16 08:37:00,
2013-03-16 04:52:00,57.6,42.0,29.84,SW,230,11.0,11.0,57,0.00,,,0.00,weatherlink.com 1.10,2013-03-16 08:52:00,
2013-03-16 05:07:00,57.5,42.0,29.84,SSW,212,5.0,7.0,57,0.00,,,0.00,weatherlink.com 1.10,2013-03-16 09:07:00,
2013-03-16 05:22:00,57.3,42.0,29.83,SW,215,5.0,8.0,57,0.00,,,0.00,weatherlink.com 1.10,2013-03-16 09:22:00,
2013-03-16 05:37:00,57.0,42.0,29.83,SW,218,6.0,7.0,58,0.00,,,0.00,weatherlink.com 1.10,2013-03-16 09:37:00,
2013-03-16 05:52:00,56.8,42.0,29.83,SW,216,2.0,9.0,59,0.00,,,0.00,weatherlink.com 1.10,2013-03-16 09:52:00,
2013-03-16 06:07:00,56.7,42.0,29.83,SSW,207,5.0,8.0,59,0.00,,,0.00,weatherlink.com 1.10,2013-03-16 10:07:00,
2013-03-16 06:22:00,56.7,42.0,29.84,SW,222,3.0,10.0,59,0.00,,,0.00,weatherlink.com 1.10,2013-03-16 10:22:00,
2013-03-16 06:37:00,56.7,42.0,29.84,WSW,252,4.0,10.0,59,0.00,,,0.00,weatherlink.com 1.10,2013-03-16 10:37:00,
2013-03-16 06:52:00,56.7,42.0,29.84,SSW,198,4.0,8.0,59,0.00,,,0.00,weatherlink.com 1.10,2013-03-16 10:52:00,
2013-03-16 07:07:00,56.3,42.0,29.84,WSW,255,1.0,5.0,60,0.00,,,0.00,weatherlink.com 1.10,2013-03-16 11:07:00,
2013-03-16 07:22:00,55.9,42.0,29.84,SSW,207,3.0,5.0,60,0.00,,,0.00,weatherlink.com 1.10,2013-03-16 11:22:00,
2013-03-16 07:37:00,55.6,42.0,29.84,SW,221,1.0,6.0,61,0.00,,,0.00,weatherlink.com 1.10,2013-03-16 11:37:00,
2013-03-16 07:52:00,54.9,42.0,29.85,SSW,200,0.0,2.0,62,0.00,,,0.00,weatherlink.com 1.10,2013-03-16 11:52:00,
2013-03-16 08:07:00,53.0,42.0,29.85,SSW,200,0.0,2.0,66,0.00,,,0.00,weatherlink.com 1.10,2013-03-16 12:07:00,
2013-03-16 08:22:00,55.0,42.0,29.85,South,190,4.0,7.0,63,0.00,,,0.00,weatherlink.com 1.10,2013-03-16 12:22:00,
2013-03-16 08:37:00,56.0,43.0,29.85,South,186,6.0,7.0,61,0.00,,,0.00,weatherlink.com 1.10,2013-03-16 12:37:00,
2013-03-16 08:52:00,57.5,43.0,29.84,WSW,244,5.0,10.0,59,0.00,,,0.00,weatherlink.com 1.10,2013-03-16 12:52:00,
2013-03-16 09:07:00,58.7,43.0,29.84,SSW,192,9.0,14.0,56,0.00,,,0.00,weatherlink.com 1.10,2013-03-16 13:07:00,
2013-03-16 09:23:00,59.9,43.0,29.84,West,266,4.0,12.0,54,0.00,,,0.00,weatherlink.com 1.10,2013-03-16 13:23:00,
2013-03-16 09:38:00,60.4,43.0,29.84,SW,221,8.0,15.0,53,0.00,,,0.00,weatherlink.com 1.10,2013-03-16 13:38:00,
2013-03-16 09:53:00,60.6,43.0,29.83,South,190,12.0,14.0,53,0.00,,,0.00,weatherlink.com 1.10,2013-03-16 13:53:00,
2013-03-16 10:08:00,61.3,43.0,29.83,SW,234,4.0,13.0,52,0.00,,,0.00,weatherlink.com 1.10,2013-03-16 14:08:00,
2013-03-16 10:23:00,61.7,43.0,29.83,SSW,194,7.0,13.0,51,0.00,,,0.00,weatherlink.com 1.10,2013-03-16 14:23:00,
2013-03-16 10:38:00,62.2,43.0,29.83,West,267,8.0,13.0,50,0.00,,,0.00,weatherlink.com 1.10,2013-03-16 14:38:00,
2013-03-16 10:53:00,63.1,43.0,29.82,SW,215,7.0,10.0,49,0.00,,,0.00,weatherlink.com 1.10,2013-03-16 14:53:00,
2013-03-16 11:08:00,64.3,45.0,29.82,WSW,244,5.0,11.0,49,0.00,,,0.00,weatherlink.com 1.10,2013-03-16 15:08:00,
2013-03-16 11:23:00,65.6,45.0,29.81,SSW,213,5.0,12.0,47,0.00,,,0.00,weatherlink.com 1.10,2013-03-16 15:23:00,
2013-03-16 11:38:00,67.5,45.0,29.81,SSW,207,4.0,11.0,45,0.00,,,0.00,weatherlink.com 1.10,2013-03-16 15:38:00,
2013-03-16 11:53:00,68.6,46.0,29.80,WSW,250,3.0,15.0,44,0.00,,,0.00,weatherlink.com 1.10,2013-03-16 15:53:00,
2013-03-16 12:08:00,69.3,45.0,29.79,SW,215,6.0,13.0,42,0.00,,,0.00,weatherlink.com 1.10,2013-03-16 16:08:00,
2013-03-16 12:23:00,70.4,46.0,29.78,WSW,251,6.0,16.0,42,0.00,,,0.00,weatherlink.com 1.10,2013-03-16 16:23:00,
2013-03-16 12:38:00,70.2,45.0,29.78,South,188,10.0,16.0,40,0.00,,,0.00,weatherlink.com 1.10,2013-03-16 16:38:00,
2013-03-16 12:53:00,71.3,45.0,29.78,SW,221,9.0,18.0,39,0.00,,,0.00,weatherlink.com 1.10,2013-03-16 16:53:00,
2013-03-16 13:08:00,72.1,46.0,29.76,SSW,197,6.0,22.0,39,0.00,,,0.00,weatherlink.com 1.10,2013-03-16 17:08:00,
2013-03-16 13:23:00,73.0,45.0,29.76,SSW,198,6.0,15.0,37,0.00,,,0.00,weatherlink.com 1.10,2013-03-16 17:23:00,
2013-03-16 13:38:00,73.2,45.0,29.76,West,269,5.0,17.0,37,0.00,,,0.00,weatherlink.com 1.10,2013-03-16 17:38:00,
2013-03-16 13:53:00,72.9,46.0,29.75,SSW,192,11.0,17.0,38,0.00,,,0.00,weatherlink.com 1.10,2013-03-16 17:53:00,
2013-03-16 14:08:00,72.9,46.0,29.74,SSW,200,4.0,15.0,38,0.00,,,0.00,weatherlink.com 1.10,2013-03-16 18:08:00,
2013-03-16 14:24:00,73.0,46.0,29.73,SSW,211,13.0,16.0,38,0.00,,,0.00,weatherlink.com 1.10,2013-03-16 18:24:00,
2013-03-16 14:39:00,73.5,46.0,29.72,West,259,6.0,15.0,37,0.00,,,0.00,weatherlink.com 1.10,2013-03-16 18:39:00,
2013-03-16 14:54:00,74.3,47.0,29.71,SSW,211,6.0,17.0,38,0.00,,,0.00,weatherlink.com 1.10,2013-03-16 18:54:00,
2013-03-16 15:09:00,76.9,46.0,29.71,SSW,209,6.0,14.0,34,0.00,,,0.00,weatherlink.com 1.10,2013-03-16 19:09:00,
2013-03-16 15:24:00,77.0,47.0,29.70,SW,221,10.0,23.0,34,0.00,,,0.00,weatherlink.com 1.10,2013-03-16 19:24:00,
2013-03-16 15:39:00,76.5,47.0,29.70,SSW,198,8.0,23.0,35,0.00,,,0.00,weatherlink.com 1.10,2013-03-16 19:39:00,
2013-03-16 15:54:00,76.9,46.0,29.69,SW,222,9.0,18.0,34,0.00,,,0.00,weatherlink.com 1.10,2013-03-16 19:54:00,
2013-03-16 16:09:00,77.6,46.0,29.69,SW,227,11.0,19.0,33,0.00,,,0.00,weatherlink.com 1.10,2013-03-16 20:09:00,
2013-03-16 16:24:00,77.4,46.0,29.69,SW,236,10.0,22.0,33,0.00,,,0.00,weatherlink.com 1.10,2013-03-16 20:24:00,
2013-03-16 16:39:00,76.5,46.0,29.69,SSW,200,17.0,21.0,34,0.00,,,0.00,weatherlink.com 1.10,2013-03-16 20:39:00,
2013-03-16 16:54:00,76.4,47.0,29.68,SSW,205,14.0,23.0,35,0.00,,,0.00,weatherlink.com 1.10,2013-03-16 20:54:00,
2013-03-16 17:09:00,76.9,46.0,29.69,SW,225,11.0,21.0,34,0.00,,,0.00,weatherlink.com 1.10,2013-03-16 21:09:00,
2013-03-16 17:24:00,76.6,45.0,29.68,SW,219,13.0,17.0,33,0.00,,,0.00,weatherlink.com 1.10,2013-03-16 21:24:00,
2013-03-16 17:39:00,76.4,45.0,29.68,SW,223,12.0,18.0,33,0.00,,,0.00,weatherlink.com 1.10,2013-03-16 21:39:00,
2013-03-16 17:54:00,76.1,45.0,29.68,SSW,197,17.0,19.0,33,0.00,,,0.00,weatherlink.com 1.10,2013-03-16 21:54:00,
2013-03-16 18:09:00,76.3,46.0,29.68,South,185,7.0,17.0,34,0.00,,,0.00,weatherlink.com 1.10,2013-03-16 22:09:00,
2013-03-16 18:24:00,75.9,45.0,29.68,SW,225,13.0,19.0,33,0.00,,,0.00,weatherlink.com 1.10,2013-03-16 22:24:00,
2013-03-16 18:39:00,74.8,45.0,29.69,SSW,194,4.0,20.0,34,0.00,,,0.00,weatherlink.com 1.10,2013-03-16 22:39:00,
2013-03-16 18:54:00,73.8,45.0,29.70,SSW,200,15.0,20.0,36,0.00,,,0.00,weatherlink.com 1.10,2013-03-16 22:54:00,
2013-03-16 19:09:00,73.3,45.0,29.70,SSW,211,12.0,14.0,36,0.00,,,0.00,weatherlink.com 1.10,2013-03-16 23:09:00,
2013-03-16 19:24:00,73.1,45.0,29.71,SSW,199,6.0,11.0,36,0.00,,,0.00,weatherlink.com 1.10,2013-03-16 23:24:00,
2013-03-16 19:39:00,72.7,45.0,29.71,SW,228,2.0,15.0,37,0.00,,,0.00,weatherlink.com 1.10,2013-03-16 23:39:00,
2013-03-16 19:54:00,72.4,45.0,29.73,WSW,246,4.0,16.0,37,0.00,,,0.00,weatherlink.com 1.10,2013-03-16 23:54:00,
2013-03-16 20:09:00,72.2,44.0,29.73,WSW,257,12.0,16.0,37,0.00,,,0.00,weatherlink.com 1.10,2013-03-17 00:09:00,
2013-03-16 20:24:00,71.9,45.0,29.75,SW,222,7.0,16.0,38,0.00,,,0.00,weatherlink.com 1.10,2013-03-17 00:24:00,
2013-03-16 20:39:00,71.5,44.0,29.76,SW,231,7.0,23.0,38,0.00,,,0.00,weatherlink.com 1.10,2013-03-17 00:39:00,
2013-03-16 20:54:00,71.1,44.0,29.77,SW,236,9.0,15.0,38,0.00,,,0.00,weatherlink.com 1.10,2013-03-17 00:54:00,
2013-03-16 21:09:00,70.8,44.0,29.78,WSW,247,9.0,14.0,38,0.00,,,0.00,weatherlink.com 1.10,2013-03-17 01:09:00,
2013-03-16 21:24:00,70.0,44.0,29.79,WSW,238,3.0,14.0,39,0.00,,,0.00,weatherlink.com 1.10,2013-03-17 01:24:00,
2013-03-16 21:39:00,69.3,43.0,29.79,West,268,7.0,11.0,39,0.00,,,0.00,weatherlink.com 1.10,2013-03-17 01:39:00,
2013-03-16 21:54:00,68.3,44.0,29.80,West,259,4.0,11.0,41,0.00,,,0.00,weatherlink.com 1.10,2013-03-17 01:54:00,
2013-03-16 22:09:00,68.1,43.0,29.80,WSW,247,2.0,11.0,41,0.00,,,0.00,weatherlink.com 1.10,2013-03-17 02:09:00,
2013-03-16 22:24:00,68.1,43.0,29.80,SW,226,6.0,12.0,40,0.00,,,0.00,weatherlink.com 1.10,2013-03-17 02:24:00,
2013-03-16 22:39:00,67.7,43.0,29.81,SW,227,5.0,12.0,41,0.00,,,0.00,weatherlink.com 1.10,2013-03-17 02:39:00,
2013-03-16 22:54:00,67.1,43.0,29.81,WSW,244,3.0,8.0,42,0.00,,,0.00,weatherlink.com 1.10,2013-03-17 02:54:00,
2013-03-16 23:09:00,66.3,43.0,29.82,West,269,4.0,8.0,43,0.00,,,0.00,weatherlink.com 1.10,2013-03-17 03:09:00,
2013-03-16 23:24:00,66.0,43.0,29.82,West,260,4.0,8.0,43,0.00,,,0.00,weatherlink.com 1.10,2013-03-17 03:24:00,
2013-03-16 23:39:00,65.8,43.0,29.82,West,262,7.0,9.0,43,0.00,,,0.00,weatherlink.com 1.10,2013-03-17 03:39:00,
2013-03-16 23:54:00,65.2,43.0,29.82,WSW,254,6.0,8.0,44,0.00,,,0.00,weatherlink.com 1.10,2013-03-17 03:54:00,